sensor_id;sensor_type;location;lat;lon;timestamp;pressure;altitude;pressure_sealevel;temperature;humidity
12215;BME280;6170;42.206;24.142;2022-10-31T00:01:19;99119.00;;;18.33;52.66
12215;BME280;6170;42.206;24.142;2022-10-31T00:03:46;99119.69;;;18.12;53.43
12215;BME280;6170;42.206;24.142;2022-10-31T00:06:14;99120.13;;;18.21;52.80
12215;BME280;6170;42.206;24.142;2022-10-31T00:08:44;99087.97;;;18.13;52.57
12215;BME280;6170;42.206;24.142;2022-10-31T00:11:11;99112.81;;;18.21;52.52
12215;BME280;6170;42.206;24.142;2022-10-31T00:13:38;99113.34;;;18.07;52.97
12215;BME280;6170;42.206;24.142;2022-10-31T00:16:06;99080.00;;;17.78;53.21
12215;BME280;6170;42.206;24.142;2022-10-31T00:18:39;99114.16;;;18.07;53.34
12215;BME280;6170;42.206;24.142;2022-10-31T00:21:05;99106.09;;;17.95;53.26
12215;BME280;6170;42.206;24.142;2022-10-31T00:23:32;99114.66;;;18.04;53.39
12215;BME280;6170;42.206;24.142;2022-10-31T00:26:02;99125.19;;;18.01;53.32
12215;BME280;6170;42.206;24.142;2022-10-31T00:28:29;99123.00;;;18.14;52.62
12215;BME280;6170;42.206;24.142;2022-10-31T00:30:58;99158.03;;;18.32;52.71
12215;BME280;6170;42.206;24.142;2022-10-31T00:33:25;99125.88;;;18.24;52.59
12215;BME280;6170;42.206;24.142;2022-10-31T00:35:52;99118.09;;;18.00;52.96
12215;BME280;6170;42.206;24.142;2022-10-31T00:38:19;99124.88;;;18.14;52.58
12215;BME280;6170;42.206;24.142;2022-10-31T00:40:46;99128.31;;;18.09;52.94
12215;BME280;6170;42.206;24.142;2022-10-31T00:43:14;99114.91;;;18.03;52.90
12215;BME280;6170;42.206;24.142;2022-10-31T00:45:41;99123.06;;;18.19;52.64
12215;BME280;6170;42.206;24.142;2022-10-31T00:48:08;99118.81;;;18.23;52.62
12215;BME280;6170;42.206;24.142;2022-10-31T00:50:35;99124.47;;;18.05;53.12
12215;BME280;6170;42.206;24.142;2022-10-31T00:53:02;99111.44;;;18.19;52.67
12215;BME280;6170;42.206;24.142;2022-10-31T00:55:29;99120.63;;;18.18;52.77
12215;BME280;6170;42.206;24.142;2022-10-31T00:57:56;99111.31;;;18.14;52.48
12215;BME280;6170;42.206;24.142;2022-10-31T01:00:24;99122.09;;;18.25;52.48
12215;BME280;6170;42.206;24.142;2022-10-31T01:02:52;99106.00;;;18.19;52.23
12215;BME280;6170;42.206;24.142;2022-10-31T01:05:19;99115.41;;;18.45;51.51
12215;BME280;6170;42.206;24.142;2022-10-31T01:07:45;99118.59;;;18.41;51.63
12215;BME280;6170;42.206;24.142;2022-10-31T01:10:12;99141.63;;;18.67;51.49
12215;BME280;6170;42.206;24.142;2022-10-31T01:12:40;99121.06;;;18.71;51.16
12215;BME280;6170;42.206;24.142;2022-10-31T01:15:08;99114.47;;;18.67;51.23
12215;BME280;6170;42.206;24.142;2022-10-31T01:17:37;99118.91;;;18.57;50.96
12215;BME280;6170;42.206;24.142;2022-10-31T01:20:05;99120.63;;;18.63;50.90
12215;BME280;6170;42.206;24.142;2022-10-31T01:22:33;99131.50;;;18.63;51.03
12215;BME280;6170;42.206;24.142;2022-10-31T01:25:00;99124.66;;;18.60;51.12
12215;BME280;6170;42.206;24.142;2022-10-31T01:27:27;99152.63;;;18.77;50.81
12215;BME280;6170;42.206;24.142;2022-10-31T01:29:54;99150.97;;;18.60;51.21
12215;BME280;6170;42.206;24.142;2022-10-31T01:32:21;99117.28;;;18.44;51.24
12215;BME280;6170;42.206;24.142;2022-10-31T01:34:49;99149.81;;;18.56;51.45
12215;BME280;6170;42.206;24.142;2022-10-31T01:37:16;99117.94;;;18.51;50.87
12215;BME280;6170;42.206;24.142;2022-10-31T01:39:42;99161.81;;;18.60;50.99
12215;BME280;6170;42.206;24.142;2022-10-31T01:42:15;99122.41;;;18.40;51.32
12215;BME280;6170;42.206;24.142;2022-10-31T01:44:54;99157.41;;;18.54;51.19
12215;BME280;6170;42.206;24.142;2022-10-31T01:47:30;99138.56;;;18.35;51.46
12215;BME280;6170;42.206;24.142;2022-10-31T01:50:01;99125.53;;;18.21;51.68
12215;BME280;6170;42.206;24.142;2022-10-31T01:52:31;99135.25;;;18.17;52.07
12215;BME280;6170;42.206;24.142;2022-10-31T01:55:02;99128.94;;;18.00;52.49
12215;BME280;6170;42.206;24.142;2022-10-31T01:57:31;99123.03;;;18.03;52.17
12215;BME280;6170;42.206;24.142;2022-10-31T02:00:02;99126.00;;;18.01;52.32
12215;BME280;6170;42.206;24.142;2022-10-31T02:02:30;99126.72;;;17.97;52.33
12215;BME280;6170;42.206;24.142;2022-10-31T02:05:00;99150.63;;;18.00;52.74
12215;BME280;6170;42.206;24.142;2022-10-31T02:07:32;99121.03;;;17.98;52.14
12215;BME280;6170;42.206;24.142;2022-10-31T02:10:00;99106.44;;;17.99;52.21
12215;BME280;6170;42.206;24.142;2022-10-31T02:12:30;99101.88;;;17.88;52.14
12215;BME280;6170;42.206;24.142;2022-10-31T02:14:58;99118.81;;;17.95;52.12
12215;BME280;6170;42.206;24.142;2022-10-31T02:17:26;99136.97;;;17.94;52.70
12215;BME280;6170;42.206;24.142;2022-10-31T02:19:57;99151.81;;;18.04;52.48
12215;BME280;6170;42.206;24.142;2022-10-31T02:22:36;99147.03;;;18.11;52.34
12215;BME280;6170;42.206;24.142;2022-10-31T02:25:21;99128.13;;;17.99;52.30
12215;BME280;6170;42.206;24.142;2022-10-31T02:28:06;99134.50;;;17.93;52.54
12215;BME280;6170;42.206;24.142;2022-10-31T02:33:24;99131.56;;;17.94;52.45
12215;BME280;6170;42.206;24.142;2022-10-31T02:36:03;99130.16;;;17.92;52.75
12215;BME280;6170;42.206;24.142;2022-10-31T02:38:43;99149.63;;;18.17;52.28
12215;BME280;6170;42.206;24.142;2022-10-31T02:41:19;99131.88;;;18.10;51.91
12215;BME280;6170;42.206;24.142;2022-10-31T02:43:58;99136.88;;;17.89;52.58
12215;BME280;6170;42.206;24.142;2022-10-31T02:46:33;99137.03;;;17.71;52.56
12215;BME280;6170;42.206;24.142;2022-10-31T02:49:07;99135.06;;;17.67;52.94
12215;BME280;6170;42.206;24.142;2022-10-31T02:51:37;99138.69;;;17.72;52.85
12215;BME280;6170;42.206;24.142;2022-10-31T02:54:05;99174.94;;;17.94;52.91
12215;BME280;6170;42.206;24.142;2022-10-31T02:56:31;99146.22;;;17.70;52.77
12215;BME280;6170;42.206;24.142;2022-10-31T02:59:00;99151.41;;;17.83;52.96
12215;BME280;6170;42.206;24.142;2022-10-31T03:01:49;99156.56;;;17.85;52.87
12215;BME280;6170;42.206;24.142;2022-10-31T03:04:53;99188.88;;;17.86;53.03
12215;BME280;6170;42.206;24.142;2022-10-31T03:07:29;99192.75;;;17.90;53.14
12215;BME280;6170;42.206;24.142;2022-10-31T03:10:03;99163.44;;;17.76;52.99
12215;BME280;6170;42.206;24.142;2022-10-31T03:12:38;99162.97;;;17.79;52.72
12215;BME280;6170;42.206;24.142;2022-10-31T03:15:13;99158.13;;;17.58;53.37
12215;BME280;6170;42.206;24.142;2022-10-31T03:17:48;99161.81;;;17.63;53.46
12215;BME280;6170;42.206;24.142;2022-10-31T03:20:21;99162.28;;;17.60;53.10
12215;BME280;6170;42.206;24.142;2022-10-31T03:22:51;99157.78;;;17.54;53.56
12215;BME280;6170;42.206;24.142;2022-10-31T03:25:19;99137.88;;;17.48;53.49
12215;BME280;6170;42.206;24.142;2022-10-31T03:27:46;99158.28;;;17.63;53.26
12215;BME280;6170;42.206;24.142;2022-10-31T03:30:14;99195.13;;;17.87;53.13
12215;BME280;6170;42.206;24.142;2022-10-31T03:32:44;99158.38;;;17.68;53.32
12215;BME280;6170;42.206;24.142;2022-10-31T03:35:15;99205.13;;;17.86;53.23
12215;BME280;6170;42.206;24.142;2022-10-31T03:37:46;99173.22;;;17.77;53.01
12215;BME280;6170;42.206;24.142;2022-10-31T03:40:16;99210.94;;;18.18;52.57
12215;BME280;6170;42.206;24.142;2022-10-31T03:42:50;99181.31;;;17.88;52.58
12215;BME280;6170;42.206;24.142;2022-10-31T03:45:21;99195.28;;;18.09;52.51
12215;BME280;6170;42.206;24.142;2022-10-31T03:47:50;99183.94;;;17.83;53.01
12215;BME280;6170;42.206;24.142;2022-10-31T03:50:17;99192.97;;;18.01;52.95
12215;BME280;6170;42.206;24.142;2022-10-31T03:52:49;99187.88;;;18.04;52.55
12215;BME280;6170;42.206;24.142;2022-10-31T03:55:20;99188.16;;;17.91;52.89
12215;BME280;6170;42.206;24.142;2022-10-31T03:57:53;99185.38;;;18.14;52.55
12215;BME280;6170;42.206;24.142;2022-10-31T04:00:22;99224.84;;;18.22;52.95
12215;BME280;6170;42.206;24.142;2022-10-31T04:02:53;99226.50;;;18.23;52.98
12215;BME280;6170;42.206;24.142;2022-10-31T04:05:21;99202.72;;;18.02;53.17
12215;BME280;6170;42.206;24.142;2022-10-31T04:07:52;99192.97;;;18.01;53.11
12215;BME280;6170;42.206;24.142;2022-10-31T04:10:20;99198.03;;;17.97;53.16
12215;BME280;6170;42.206;24.142;2022-10-31T04:12:51;99227.69;;;18.15;53.25
12215;BME280;6170;42.206;24.142;2022-10-31T04:15:20;99196.34;;;18.08;52.96
12215;BME280;6170;42.206;24.142;2022-10-31T04:17:50;99203.66;;;18.07;53.04
12215;BME280;6170;42.206;24.142;2022-10-31T04:20:29;99196.22;;;18.14;52.96
12215;BME280;6170;42.206;24.142;2022-10-31T04:22:57;99205.53;;;18.07;53.00
12215;BME280;6170;42.206;24.142;2022-10-31T04:25:24;99216.31;;;18.30;52.68
12215;BME280;6170;42.206;24.142;2022-10-31T04:27:51;99206.97;;;18.09;52.76
12215;BME280;6170;42.206;24.142;2022-10-31T04:30:18;99243.41;;;18.41;53.01
12215;BME280;6170;42.206;24.142;2022-10-31T04:32:45;99214.13;;;18.15;52.99
12215;BME280;6170;42.206;24.142;2022-10-31T04:35:11;99220.41;;;18.04;53.24
12215;BME280;6170;42.206;24.142;2022-10-31T04:37:38;99216.09;;;17.91;53.51
12215;BME280;6170;42.206;24.142;2022-10-31T04:40:08;99241.34;;;18.20;53.02
12215;BME280;6170;42.206;24.142;2022-10-31T04:42:35;99212.06;;;17.94;53.41
12215;BME280;6170;42.206;24.142;2022-10-31T04:45:01;99213.72;;;17.95;53.44
12215;BME280;6170;42.206;24.142;2022-10-31T04:47:31;99229.03;;;18.01;53.41
12215;BME280;6170;42.206;24.142;2022-10-31T04:49:58;99250.25;;;18.04;53.64
12215;BME280;6170;42.206;24.142;2022-10-31T04:52:24;99221.75;;;17.90;53.67
12215;BME280;6170;42.206;24.142;2022-10-31T04:54:51;99250.34;;;18.09;53.81
12215;BME280;6170;42.206;24.142;2022-10-31T04:57:19;99230.13;;;17.77;54.11
12215;BME280;6170;42.206;24.142;2022-10-31T04:59:46;99224.75;;;17.65;54.33
12215;BME280;6170;42.206;24.142;2022-10-31T05:02:13;99219.53;;;17.64;54.19
12215;BME280;6170;42.206;24.142;2022-10-31T05:04:40;99220.72;;;17.56;54.44
12215;BME280;6170;42.206;24.142;2022-10-31T05:07:07;99219.16;;;17.48;54.90
12215;BME280;6170;42.206;24.142;2022-10-31T05:09:34;99226.84;;;17.63;54.37
12215;BME280;6170;42.206;24.142;2022-10-31T05:12:00;99229.34;;;17.65;54.72
12215;BME280;6170;42.206;24.142;2022-10-31T05:14:28;99225.31;;;17.56;54.77
12215;BME280;6170;42.206;24.142;2022-10-31T05:16:55;99226.28;;;17.61;54.58
12215;BME280;6170;42.206;24.142;2022-10-31T05:19:22;99261.25;;;17.74;54.46
12215;BME280;6170;42.206;24.142;2022-10-31T05:21:49;99231.78;;;17.66;54.63
12215;BME280;6170;42.206;24.142;2022-10-31T05:24:15;99261.59;;;17.89;54.51
12215;BME280;6170;42.206;24.142;2022-10-31T05:26:42;99263.94;;;17.86;54.42
12215;BME280;6170;42.206;24.142;2022-10-31T05:29:09;99272.19;;;17.91;54.58
12215;BME280;6170;42.206;24.142;2022-10-31T05:31:37;99243.78;;;17.70;54.60
12215;BME280;6170;42.206;24.142;2022-10-31T05:34:04;99277.84;;;17.89;54.73
12215;BME280;6170;42.206;24.142;2022-10-31T05:36:32;99269.00;;;17.94;54.55
12215;BME280;6170;42.206;24.142;2022-10-31T05:38:58;99252.03;;;17.99;54.18
12215;BME280;6170;42.206;24.142;2022-10-31T05:41:25;99242.22;;;17.98;54.07
12215;BME280;6170;42.206;24.142;2022-10-31T05:43:52;99252.97;;;18.04;54.01
12215;BME280;6170;42.206;24.142;2022-10-31T05:46:19;99282.25;;;18.30;54.27
12215;BME280;6170;42.206;24.142;2022-10-31T05:48:47;99290.25;;;18.37;54.00
12215;BME280;6170;42.206;24.142;2022-10-31T05:51:14;99268.81;;;18.35;53.76
12215;BME280;6170;42.206;24.142;2022-10-31T05:53:41;99274.56;;;18.39;53.63
12215;BME280;6170;42.206;24.142;2022-10-31T05:56:07;99249.75;;;18.19;53.90
12215;BME280;6170;42.206;24.142;2022-10-31T05:58:34;99269.47;;;18.42;53.82
12215;BME280;6170;42.206;24.142;2022-10-31T06:01:01;99269.69;;;18.13;54.44
12215;BME280;6170;42.206;24.142;2022-10-31T06:03:28;99303.47;;;18.45;54.08
12215;BME280;6170;42.206;24.142;2022-10-31T06:05:56;99299.78;;;18.51;53.82
12215;BME280;6170;42.206;24.142;2022-10-31T06:08:23;99289.16;;;18.50;53.91
12215;BME280;6170;42.206;24.142;2022-10-31T06:10:49;99312.69;;;19.01;53.25
12215;BME280;6170;42.206;24.142;2022-10-31T06:13:18;99297.19;;;18.56;53.77
12215;BME280;6170;42.206;24.142;2022-10-31T06:15:45;99296.72;;;18.48;54.03
12215;BME280;6170;42.206;24.142;2022-10-31T06:18:11;99326.53;;;19.61;52.10
12215;BME280;6170;42.206;24.142;2022-10-31T06:20:38;99322.19;;;19.60;51.96
12215;BME280;6170;42.206;24.142;2022-10-31T06:23:06;99296.53;;;20.49;50.53
12215;BME280;6170;42.206;24.142;2022-10-31T06:25:34;99330.00;;;20.72;49.75
12215;BME280;6170;42.206;24.142;2022-10-31T06:28:01;99301.44;;;20.09;50.42
12215;BME280;6170;42.206;24.142;2022-10-31T06:30:28;99327.47;;;20.05;51.11
12215;BME280;6170;42.206;24.142;2022-10-31T06:33:01;99335.69;;;20.10;51.04
12215;BME280;6170;42.206;24.142;2022-10-31T06:35:28;99330.53;;;20.08;51.13
12215;BME280;6170;42.206;24.142;2022-10-31T06:37:55;99314.84;;;19.60;52.00
12215;BME280;6170;42.206;24.142;2022-10-31T06:40:23;99332.81;;;19.78;51.86
12215;BME280;6170;42.206;24.142;2022-10-31T06:42:56;99333.13;;;19.65;52.21
12215;BME280;6170;42.206;24.142;2022-10-31T06:45:22;99335.34;;;19.85;52.00
12215;BME280;6170;42.206;24.142;2022-10-31T06:47:51;99303.84;;;19.89;51.50
12215;BME280;6170;42.206;24.142;2022-10-31T06:50:17;99315.06;;;20.14;51.29
12215;BME280;6170;42.206;24.142;2022-10-31T06:52:50;99339.69;;;20.41;51.24
12215;BME280;6170;42.206;24.142;2022-10-31T06:55:16;99329.56;;;20.36;50.85
12215;BME280;6170;42.206;24.142;2022-10-31T06:57:50;99302.00;;;20.76;50.36
12215;BME280;6170;42.206;24.142;2022-10-31T07:00:17;99336.28;;;21.21;49.69
12215;BME280;6170;42.206;24.142;2022-10-31T07:02:51;99304.47;;;20.78;49.92
12215;BME280;6170;42.206;24.142;2022-10-31T07:05:18;99313.34;;;21.17;49.41
12215;BME280;6170;42.206;24.142;2022-10-31T07:07:45;99340.50;;;21.65;49.37
12215;BME280;6170;42.206;24.142;2022-10-31T07:10:12;99303.53;;;22.26;47.96
12215;BME280;6170;42.206;24.142;2022-10-31T07:12:38;99334.47;;;23.09;47.70
12215;BME280;6170;42.206;24.142;2022-10-31T07:15:08;99306.31;;;23.29;46.15
12215;BME280;6170;42.206;24.142;2022-10-31T07:17:35;99295.88;;;24.12;45.29
12215;BME280;6170;42.206;24.142;2022-10-31T07:20:02;99325.97;;;24.37;44.89
12215;BME280;6170;42.206;24.142;2022-10-31T07:22:33;99321.84;;;24.35;45.16
12215;BME280;6170;42.206;24.142;2022-10-31T07:25:00;99297.66;;;24.57;44.20
12215;BME280;6170;42.206;24.142;2022-10-31T07:27:26;99321.72;;;24.65;43.91
12215;BME280;6170;42.206;24.142;2022-10-31T07:29:53;99315.28;;;24.36;44.03
12215;BME280;6170;42.206;24.142;2022-10-31T07:32:21;99285.50;;;24.04;45.29
12215;BME280;6170;42.206;24.142;2022-10-31T07:34:48;99304.97;;;24.87;43.73
12215;BME280;6170;42.206;24.142;2022-10-31T07:37:15;99312.75;;;24.54;44.47
12215;BME280;6170;42.206;24.142;2022-10-31T07:39:41;99285.84;;;24.67;43.92
12215;BME280;6170;42.206;24.142;2022-10-31T07:42:08;99308.81;;;24.86;43.83
12215;BME280;6170;42.206;24.142;2022-10-31T07:44:35;99309.97;;;25.58;43.08
12215;BME280;6170;42.206;24.142;2022-10-31T07:47:02;99292.69;;;25.52;43.35
12215;BME280;6170;42.206;24.142;2022-10-31T07:49:30;99316.66;;;25.02;43.81
12215;BME280;6170;42.206;24.142;2022-10-31T07:51:56;99290.66;;;24.85;43.94
12215;BME280;6170;42.206;24.142;2022-10-31T07:54:23;99292.72;;;24.64;44.08
12215;BME280;6170;42.206;24.142;2022-10-31T07:56:50;99290.47;;;25.20;43.43
12215;BME280;6170;42.206;24.142;2022-10-31T07:59:17;99297.03;;;25.58;42.67
12215;BME280;6170;42.206;24.142;2022-10-31T08:01:43;99282.91;;;24.48;43.70
12215;BME280;6170;42.206;24.142;2022-10-31T08:04:10;99309.31;;;24.88;43.82
12215;BME280;6170;42.206;24.142;2022-10-31T08:06:38;99283.50;;;24.99;43.19
12215;BME280;6170;42.206;24.142;2022-10-31T08:09:05;99287.78;;;25.10;43.36
12215;BME280;6170;42.206;24.142;2022-10-31T08:11:31;99289.88;;;25.23;43.21
12215;BME280;6170;42.206;24.142;2022-10-31T08:13:58;99292.22;;;25.06;43.24
12215;BME280;6170;42.206;24.142;2022-10-31T08:16:26;99306.69;;;25.17;43.18
12215;BME280;6170;42.206;24.142;2022-10-31T08:18:52;99286.59;;;24.82;44.36
12215;BME280;6170;42.206;24.142;2022-10-31T08:21:20;99309.31;;;25.71;42.92
12215;BME280;6170;42.206;24.142;2022-10-31T08:23:49;99276.19;;;26.15;42.52
12215;BME280;6170;42.206;24.142;2022-10-31T08:26:15;99304.38;;;26.49;41.75
12215;BME280;6170;42.206;24.142;2022-10-31T08:28:42;99270.13;;;26.42;41.18
12215;BME280;6170;42.206;24.142;2022-10-31T08:31:09;99306.72;;;26.79;41.71
12215;BME280;6170;42.206;24.142;2022-10-31T08:33:35;99297.91;;;27.01;41.30
12215;BME280;6170;42.206;24.142;2022-10-31T08:36:02;99290.03;;;26.52;41.43
12215;BME280;6170;42.206;24.142;2022-10-31T08:38:29;99283.41;;;27.14;41.96
12215;BME280;6170;42.206;24.142;2022-10-31T08:40:57;99274.84;;;27.35;41.17
12215;BME280;6170;42.206;24.142;2022-10-31T08:43:24;99297.56;;;27.08;40.20
12215;BME280;6170;42.206;24.142;2022-10-31T08:45:50;99298.59;;;27.31;40.44
12215;BME280;6170;42.206;24.142;2022-10-31T08:48:20;99279.34;;;26.93;40.96
12215;BME280;6170;42.206;24.142;2022-10-31T08:50:47;99306.31;;;27.29;41.81
12215;BME280;6170;42.206;24.142;2022-10-31T08:53:16;99283.53;;;27.42;39.55
12215;BME280;6170;42.206;24.142;2022-10-31T08:55:44;99282.94;;;27.77;40.23
12215;BME280;6170;42.206;24.142;2022-10-31T08:58:14;99291.84;;;27.88;39.66
12215;BME280;6170;42.206;24.142;2022-10-31T09:00:42;99285.25;;;27.56;39.13
12215;BME280;6170;42.206;24.142;2022-10-31T09:03:11;99309.41;;;27.22;40.91
12215;BME280;6170;42.206;24.142;2022-10-31T09:05:38;99287.19;;;27.37;39.93
12215;BME280;6170;42.206;24.142;2022-10-31T09:08:06;99310.97;;;27.65;41.59
12215;BME280;6170;42.206;24.142;2022-10-31T09:10:34;99303.84;;;28.10;39.84
12215;BME280;6170;42.206;24.142;2022-10-31T09:13:03;99313.28;;;27.58;40.31
12215;BME280;6170;42.206;24.142;2022-10-31T09:15:33;99302.06;;;27.87;39.53
12215;BME280;6170;42.206;24.142;2022-10-31T09:18:00;99268.78;;;27.70;39.66
12215;BME280;6170;42.206;24.142;2022-10-31T09:20:27;99280.25;;;27.58;39.98
12215;BME280;6170;42.206;24.142;2022-10-31T09:22:59;99306.41;;;27.75;39.30
12215;BME280;6170;42.206;24.142;2022-10-31T09:25:26;99294.75;;;28.24;39.78
12215;BME280;6170;42.206;24.142;2022-10-31T09:27:56;99293.97;;;27.77;39.72
12215;BME280;6170;42.206;24.142;2022-10-31T09:30:23;99273.84;;;28.50;39.29
12215;BME280;6170;42.206;24.142;2022-10-31T09:32:56;99272.38;;;27.98;39.96
12215;BME280;6170;42.206;24.142;2022-10-31T09:35:23;99310.19;;;28.79;38.56
12215;BME280;6170;42.206;24.142;2022-10-31T09:37:54;99298.66;;;28.23;39.84
12215;BME280;6170;42.206;24.142;2022-10-31T09:40:21;99288.84;;;28.57;39.46
12215;BME280;6170;42.206;24.142;2022-10-31T09:42:55;99275.44;;;27.96;39.75
12215;BME280;6170;42.206;24.142;2022-10-31T09:45:28;99306.13;;;28.49;39.87
12215;BME280;6170;42.206;24.142;2022-10-31T09:48:11;99296.69;;;28.78;39.37
12215;BME280;6170;42.206;24.142;2022-10-31T09:50:45;99293.16;;;28.50;37.69
12215;BME280;6170;42.206;24.142;2022-10-31T09:53:21;99297.41;;;28.29;38.71
12215;BME280;6170;42.206;24.142;2022-10-31T09:55:50;99290.16;;;28.74;39.13
12215;BME280;6170;42.206;24.142;2022-10-31T09:58:19;99297.13;;;28.30;39.81
12215;BME280;6170;42.206;24.142;2022-10-31T10:00:48;99275.44;;;28.65;37.69
12215;BME280;6170;42.206;24.142;2022-10-31T10:03:32;99298.63;;;28.64;38.44
12215;BME280;6170;42.206;24.142;2022-10-31T10:06:09;99286.91;;;28.17;39.58
12215;BME280;6170;42.206;24.142;2022-10-31T10:08:38;99272.78;;;28.59;38.38
12215;BME280;6170;42.206;24.142;2022-10-31T10:11:17;99286.50;;;28.10;39.34
12215;BME280;6170;42.206;24.142;2022-10-31T10:14:15;99271.56;;;28.66;39.15
12215;BME280;6170;42.206;24.142;2022-10-31T10:16:57;99282.91;;;28.64;39.49
12215;BME280;6170;42.206;24.142;2022-10-31T10:19:41;99287.81;;;28.81;39.09
12215;BME280;6170;42.206;24.142;2022-10-31T10:22:16;99267.44;;;27.81;38.83
12215;BME280;6170;42.206;24.142;2022-10-31T10:25:09;99288.94;;;28.80;37.92
12215;BME280;6170;42.206;24.142;2022-10-31T10:27:47;99265.50;;;28.28;38.61
12215;BME280;6170;42.206;24.142;2022-10-31T10:30:18;99268.31;;;28.09;38.34
12215;BME280;6170;42.206;24.142;2022-10-31T10:32:48;99253.19;;;28.75;37.29
12215;BME280;6170;42.206;24.142;2022-10-31T10:35:22;99259.19;;;28.77;37.72
12215;BME280;6170;42.206;24.142;2022-10-31T10:37:54;99256.84;;;28.84;37.46
12215;BME280;6170;42.206;24.142;2022-10-31T10:40:25;99249.34;;;28.48;38.45
12215;BME280;6170;42.206;24.142;2022-10-31T10:42:59;99248.13;;;28.90;37.91
12215;BME280;6170;42.206;24.142;2022-10-31T10:45:54;99279.84;;;28.79;37.93
12215;BME280;6170;42.206;24.142;2022-10-31T10:48:46;99232.41;;;29.13;37.88
12215;BME280;6170;42.206;24.142;2022-10-31T10:51:23;99258.66;;;29.24;36.20
12215;BME280;6170;42.206;24.142;2022-10-31T10:54:02;99254.47;;;29.49;37.41
12215;BME280;6170;42.206;24.142;2022-10-31T10:56:54;99230.47;;;29.58;36.82
12215;BME280;6170;42.206;24.142;2022-10-31T10:59:23;99243.81;;;29.87;36.73
12215;BME280;6170;42.206;24.142;2022-10-31T11:01:51;99245.94;;;29.37;36.60
12215;BME280;6170;42.206;24.142;2022-10-31T11:04:28;99269.28;;;29.17;37.32
12215;BME280;6170;42.206;24.142;2022-10-31T11:07:05;99243.09;;;29.06;37.35
12215;BME280;6170;42.206;24.142;2022-10-31T11:09:33;99242.78;;;29.08;37.93
12215;BME280;6170;42.206;24.142;2022-10-31T11:12:06;99234.03;;;28.92;36.82
12215;BME280;6170;42.206;24.142;2022-10-31T11:14:35;99231.97;;;28.48;37.56
12215;BME280;6170;42.206;24.142;2022-10-31T11:17:10;99232.00;;;28.34;37.95
12215;BME280;6170;42.206;24.142;2022-10-31T11:19:37;99228.50;;;28.29;37.82
12215;BME280;6170;42.206;24.142;2022-10-31T11:22:15;99222.91;;;28.20;37.32
12215;BME280;6170;42.206;24.142;2022-10-31T11:24:42;99215.06;;;28.41;38.03
12215;BME280;6170;42.206;24.142;2022-10-31T11:27:14;99240.25;;;28.48;38.02
12215;BME280;6170;42.206;24.142;2022-10-31T11:29:41;99197.09;;;28.30;38.04
12215;BME280;6170;42.206;24.142;2022-10-31T11:32:18;99232.91;;;28.30;38.83
12215;BME280;6170;42.206;24.142;2022-10-31T11:34:46;99236.59;;;28.11;37.40
12215;BME280;6170;42.206;24.142;2022-10-31T11:37:19;99203.59;;;27.65;39.23
12215;BME280;6170;42.206;24.142;2022-10-31T11:39:50;99226.00;;;28.19;38.04
12215;BME280;6170;42.206;24.142;2022-10-31T11:42:21;99210.91;;;27.56;38.93
12215;BME280;6170;42.206;24.142;2022-10-31T11:44:50;99203.75;;;27.23;39.08
12215;BME280;6170;42.206;24.142;2022-10-31T11:47:21;99200.44;;;27.40;39.02
12215;BME280;6170;42.206;24.142;2022-10-31T11:49:50;99226.41;;;27.52;39.16
12215;BME280;6170;42.206;24.142;2022-10-31T11:52:20;99195.22;;;27.84;38.38
12215;BME280;6170;42.206;24.142;2022-10-31T11:54:50;99216.06;;;28.04;38.28
12215;BME280;6170;42.206;24.142;2022-10-31T11:57:24;99181.88;;;27.64;38.88
12215;BME280;6170;42.206;24.142;2022-10-31T11:59:52;99185.03;;;27.71;38.56
12215;BME280;6170;42.206;24.142;2022-10-31T12:02:20;99179.03;;;27.37;38.79
12215;BME280;6170;42.206;24.142;2022-10-31T12:04:53;99185.63;;;27.54;38.73
12215;BME280;6170;42.206;24.142;2022-10-31T12:07:24;99186.56;;;27.63;39.28
12215;BME280;6170;42.206;24.142;2022-10-31T12:09:51;99188.72;;;28.07;37.32
12215;BME280;6170;42.206;24.142;2022-10-31T12:12:45;99208.84;;;28.22;38.32
12215;BME280;6170;42.206;24.142;2022-10-31T12:15:36;99184.09;;;27.76;37.76
12215;BME280;6170;42.206;24.142;2022-10-31T12:18:28;99201.16;;;27.45;38.67
12215;BME280;6170;42.206;24.142;2022-10-31T12:21:12;99191.44;;;26.83;39.85
12215;BME280;6170;42.206;24.142;2022-10-31T12:23:52;99186.75;;;27.21;39.06
12215;BME280;6170;42.206;24.142;2022-10-31T12:26:32;99190.22;;;27.59;37.94
12215;BME280;6170;42.206;24.142;2022-10-31T12:29:19;99188.31;;;27.73;38.10
12215;BME280;6170;42.206;24.142;2022-10-31T12:32:08;99191.75;;;27.33;38.83
12215;BME280;6170;42.206;24.142;2022-10-31T12:35:00;99189.47;;;27.07;38.99
12215;BME280;6170;42.206;24.142;2022-10-31T12:37:41;99205.72;;;27.55;38.33
12215;BME280;6170;42.206;24.142;2022-10-31T12:40:26;99194.81;;;27.31;37.83
12215;BME280;6170;42.206;24.142;2022-10-31T12:43:08;99203.66;;;26.96;38.82
12215;BME280;6170;42.206;24.142;2022-10-31T12:45:49;99216.97;;;27.07;39.23
12215;BME280;6170;42.206;24.142;2022-10-31T12:48:33;99190.22;;;26.94;39.76
12215;BME280;6170;42.206;24.142;2022-10-31T12:51:09;99193.69;;;26.81;40.04
12215;BME280;6170;42.206;24.142;2022-10-31T12:54:03;99192.16;;;27.26;38.90
12215;BME280;6170;42.206;24.142;2022-10-31T12:56:42;99185.66;;;27.03;38.93
12215;BME280;6170;42.206;24.142;2022-10-31T12:59:19;99183.91;;;26.94;38.85
12215;BME280;6170;42.206;24.142;2022-10-31T13:01:51;99181.00;;;27.17;38.41
12215;BME280;6170;42.206;24.142;2022-10-31T13:04:33;99168.50;;;26.93;38.65
12215;BME280;6170;42.206;24.142;2022-10-31T13:07:04;99205.19;;;26.83;38.62
12215;BME280;6170;42.206;24.142;2022-10-31T13:09:35;99184.78;;;26.70;38.86
12215;BME280;6170;42.206;24.142;2022-10-31T13:12:08;99180.25;;;26.98;38.24
12215;BME280;6170;42.206;24.142;2022-10-31T13:14:39;99182.16;;;26.79;38.66
12215;BME280;6170;42.206;24.142;2022-10-31T13:17:14;99191.69;;;26.87;38.27
12215;BME280;6170;42.206;24.142;2022-10-31T13:19:44;99201.09;;;26.86;38.30
12215;BME280;6170;42.206;24.142;2022-10-31T13:22:17;99184.50;;;26.72;38.87